Welcome to Northern Hawkes Bay. New Zealand.
PWS Header
      nz Flag



Hit Counter


W3C Valid W3C Valid logo


    Wairoa

Select any of the Stations below to visit their websites.










Historic Data from Weather Underground
Select the location of interest below. Wairoa is the default. Please have patience, this Data is slow to load in.
Northern Hawkes Bay Historical Data
Daily Summary for June 7, 2017 Units:  English    Metric   Both
« Previous Day
Next Day »
Daily Weekly Monthly Yearly Custom
  High: Low: Average:
Temperature: 67.3 °F 38.1 °F 49.5 °F
Dew Point: 48 °F 37.9 °F 42.8 °F
Humidity: 99% 47% 80%
Wind Speed: 16.8mph 0mph 4.2mph
Wind Gust: 22.1mph - -
Wind- - WNW
Pressure: 30.1 in 30 in -
Precipitation: 0 in    
Historical Graphs
 
 
Tabular Data for June 7, 2017
Time Temperature Dew Point Pressure Wind Wind Speed Wind Gust Humidity Rainfall Rate (Hourly) solar
00:10 42.1 °F 41.7 °F 30 in NW 3.1 mph 5.4 mph 99% 0 in 0 W/m2
00:15 42.1 °F 41.7 °F 30 in NNW 3.1 mph 5.4 mph 99% 0 in 0 W/m2
00:20 42.1 °F 41.7 °F 30 in NW 3.8 mph 5.4 mph 99% 0 in 0 W/m2
00:25 42.1 °F 41.7 °F 30 in NW 3.1 mph 5.4 mph 99% 0 in 0 W/m2
00:30 42.1 °F 41.7 °F 30 in NW 3.1 mph 5.4 mph 99% 0 in 0 W/m2
00:35 42.1 °F 41.7 °F 30 in NW 3.8 mph 5.4 mph 99% 0 in 0 W/m2
00:40 42.1 °F 41.7 °F 30 in NW 4.5 mph 6 mph 99% 0 in 0 W/m2
00:45 42.1 °F 41.7 °F 30 in NW 3.1 mph 6 mph 99% 0 in 0 W/m2
00:50 42.1 °F 41.7 °F 30 in NW 3.1 mph 6 mph 99% 0 in 0 W/m2
00:51 41.9 °F 41.5 °F 30 in NW 3.8 mph 5.4 mph 99% 0 in 0 W/m2
00:56 41.9 °F 41.5 °F 30 in NW 3.1 mph 5.4 mph 99% 0 in 0 W/m2
01:01 41.9 °F 41.5 °F 30 in NW 3.8 mph 5.4 mph 99% 0 in 0 W/m2
01:06 41.7 °F 41.5 °F 30 in NW 3.8 mph 6 mph 99% 0 in 0 W/m2
01:11 41.7 °F 41.5 °F 30 in NW 3.8 mph 6 mph 99% 0 in 0 W/m2
01:16 41.7 °F 41.5 °F 30 in NW 3.1 mph 6 mph 99% 0 in 0 W/m2
01:21 41.7 °F 41.5 °F 30 in NW 3.8 mph 6 mph 99% 0 in 0 W/m2
01:26 41.7 °F 41.5 °F 30 in NNW 3.1 mph 6 mph 99% 0 in 0 W/m2
01:31 41.5 °F 41.4 °F 30 in NNW 2.2 mph 6 mph 99% 0 in 0 W/m2
01:36 41.4 °F 41.2 °F 30 in NNW 3.8 mph 5.4 mph 99% 0 in 0 W/m2
01:41 41.4 °F 41.2 °F 30 in NW 3.1 mph 5.4 mph 99% 0 in 0 W/m2
01:46 41.2 °F 40.8 °F 30 in NW 3.8 mph 5.4 mph 99% 0 in 0 W/m2
01:51 41.2 °F 40.8 °F 30 in NW 3.1 mph 6 mph 99% 0 in 0 W/m2
01:56 41.2 °F 40.8 °F 30 in NW 3.1 mph 6 mph 99% 0 in 0 W/m2
02:01 41 °F 40.6 °F 30 in NW 3.1 mph 7.6 mph 99% 0 in 0 W/m2
02:06 40.8 °F 40.6 °F 30 in NNW 3.1 mph 7.6 mph 99% 0 in 0 W/m2
02:11 40.6 °F 40.5 °F 30 in NNW 3.8 mph 5.4 mph 99% 0 in 0 W/m2
02:16 40.5 °F 40.3 °F 30 in NW 3.8 mph 5.4 mph 99% 0 in 0 W/m2
02:21 40.5 °F 40.3 °F 30 in NW 4.5 mph 6.9 mph 99% 0 in 0 W/m2
02:26 40.5 °F 40.3 °F 30 in NNW 4.5 mph 6.9 mph 99% 0 in 0 W/m2
02:31 40.5 °F 40.3 °F 30 in NNW 3.1 mph 6.9 mph 99% 0 in 0 W/m2
02:36 40.3 °F 39.9 °F 30 in NNW 3.8 mph 6.9 mph 99% 0 in 0 W/m2
02:41 40.3 °F 39.9 °F 30 in NW 3.8 mph 8.3 mph 99% 0 in 0 W/m2
02:46 40.3 °F 39.9 °F 30 in NW 4.5 mph 8.3 mph 99% 0 in 0 W/m2
02:51 40.5 °F 40.3 °F 30 in NW 5.4 mph 6.9 mph 99% 0 in 0 W/m2
02:56 40.5 °F 40.3 °F 30 in NW 5.4 mph 7.6 mph 99% 0 in 0 W/m2
03:01 40.5 °F 40.3 °F 30 in NW 4.5 mph 7.6 mph 99% 0 in 0 W/m2
03:06 40.5 °F 40.3 °F 30 in NNW 5.4 mph 6.9 mph 99% 0 in 0 W/m2
03:11 40.5 °F 40.3 °F 30 in NW 4.5 mph 7.6 mph 99% 0 in 0 W/m2
03:16 40.5 °F 40.3 °F 30 in NW 3.8 mph 7.6 mph 99% 0 in 0 W/m2
03:21 40.5 °F 40.3 °F 30 in NW 3.8 mph 7.6 mph 99% 0 in 0 W/m2
03:26 40.5 °F 40.3 °F 30 in NW 3.8 mph 10.7 mph 99% 0 in 0 W/m2
03:45 40.3 °F 39.9 °F 30 in NW 3.8 mph 7.6 mph 99% 0 in 0 W/m2
03:55 40.3 °F 39.9 °F 30 in NNW 5.4 mph 8.3 mph 99% 0 in 0 W/m2
04:00 40.3 °F 39.9 °F 30 in NW 6.9 mph 9.8 mph 99% 0 in 0 W/m2
04:05 40.1 °F 39.7 °F 30 in NNW 6.9 mph 9.8 mph 99% 0 in 0 W/m2
04:10 40.1 °F 39.7 °F 30 in NNW 5.4 mph 8.3 mph 99% 0 in 0 W/m2
04:15 40.1 °F 39.7 °F 30 in NNW 5.4 mph 8.3 mph 99% 0 in 0 W/m2
04:20 40.1 °F 39.7 °F 30 in NNW 6.9 mph 10.7 mph 99% 0 in 0 W/m2
04:25 40.3 °F 39.9 °F 30 in NNW 5.4 mph 10.7 mph 99% 0 in 0 W/m2
04:30 40.3 °F 39.9 °F 30 in NNW 4.5 mph 10.7 mph 99% 0 in 0 W/m2
04:36 40.3 °F 39.9 °F 30 in North 5.4 mph 9.2 mph 99% 0 in 0 W/m2
04:41 40.3 °F 39.9 °F 30 in NNW 3.1 mph 8.3 mph 99% 0 in 0 W/m2
04:43 40.1 °F 39.7 °F 30 in NNW 4.5 mph 8.3 mph 99% 0 in 0 W/m2
04:48 39.9 °F 39.7 °F 30 in NNW 5.4 mph 6.9 mph 99% 0 in 0 W/m2
04:53 39.9 °F 39.7 °F 30 in NNW 3.8 mph 6.9 mph 99% 0 in 0 W/m2
04:58 39.9 °F 39.7 °F 30 in NW 4.5 mph 6 mph 99% 0 in 0 W/m2
05:03 39.9 °F 39.7 °F 30 in NW 3.1 mph 6 mph 99% 0 in 0 W/m2
05:08 39.7 °F 39.6 °F 30 in NW 3.1 mph 6 mph 99% 0 in 0 W/m2
05:13 39.6 °F 39.4 °F 30 in NW 3.8 mph 5.4 mph 99% 0 in 0 W/m2
05:18 39.6 °F 39.4 °F 30 in NW 3.1 mph 6 mph 99% 0 in 0 W/m2
05:23 39.4 °F 39 °F 30 in NW 3.8 mph 6 mph 99% 0 in 0 W/m2
05:28 39.4 °F 39 °F 30 in NNW 3.1 mph 6 mph 99% 0 in 0 W/m2
05:33 39.6 °F 39.4 °F 30 in NW 3.1 mph 7.6 mph 99% 0 in 0 W/m2
05:38 39.4 °F 39 °F 30 in NW 4.5 mph 7.6 mph 99% 0 in 0 W/m2
05:43 39.4 °F 39 °F 30 in NNW 4.5 mph 7.6 mph 99% 0 in 0 W/m2
05:48 39.2 °F 38.8 °F 30 in NNW 4.5 mph 7.6 mph 99% 0 in 0 W/m2
05:53 39.2 °F 38.8 °F 30 in NNW 3.1 mph 7.6 mph 99% 0 in 0 W/m2
05:58 39 °F 38.8 °F 30 in NNW 3.8 mph 6.9 mph 99% 0 in 0 W/m2
06:03 39 °F 38.8 °F 30 in NW 4.5 mph 7.6 mph 99% 0 in 0 W/m2
06:08 39.2 °F 38.8 °F 30 in NNW 3.8 mph 7.6 mph 99% 0 in 0 W/m2
06:13 39 °F 38.8 °F 30 in NNW 3.8 mph 7.6 mph 99% 0 in 0 W/m2
06:18 39 °F 38.8 °F 30 in NW 3.1 mph 6 mph 99% 0 in 0 W/m2
06:35 39 °F 38.8 °F 30 in NNW 3.8 mph 6.9 mph 99% 0 in 0 W/m2
06:40 39 °F 38.8 °F 30 in NNW 3.1 mph 5.4 mph 99% 0 in 0 W/m2
06:45 39 °F 38.8 °F 30 in NNW 3.8 mph 6 mph 99% 0 in 0 W/m2
06:50 38.8 °F 38.7 °F 30 in NNW 3.1 mph 6 mph 99% 0 in 0 W/m2
06:55 38.8 °F 38.7 °F 30 in NNW 2.2 mph 6 mph 99% 0 in 0 W/m2
07:00 38.7 °F 38.5 °F 30 in North 3.8 mph 6 mph 99% 0 in 0 W/m2
07:05 38.5 °F 38.1 °F 30 in NNW 3.8 mph 6 mph 99% 0 in 0 W/m2
07:10 38.5 °F 38.1 °F 30 in NNW 3.8 mph 6 mph 99% 0 in 0 W/m2
07:15 38.3 °F 37.9 °F 30 in NW 3.8 mph 6 mph 99% 0 in 0 W/m2
07:20 38.3 °F 37.9 °F 30 in NW 5.4 mph 7.6 mph 99% 0 in 1 W/m2
07:25 38.1 °F 37.9 °F 30 in NW 4.5 mph 7.6 mph 99% 0 in 3 W/m2
07:30 38.1 °F 37.9 °F 30 in NW 4.5 mph 7.6 mph 99% 0 in 6 W/m2
07:35 38.1 °F 37.9 °F 30 in NNW 4.5 mph 6.9 mph 99% 0 in 9 W/m2
07:40 38.3 °F 37.9 °F 30 in NNW 3.1 mph 7.6 mph 99% 0 in 33 W/m2
07:45 38.8 °F 38.7 °F 30 in NW 3.8 mph 7.6 mph 99% 0 in 46 W/m2
07:50 39.2 °F 38.8 °F 30 in NNW 3.8 mph 6.9 mph 99% 0 in 60 W/m2
07:55 39.4 °F 39 °F 30 in NNW 3.8 mph 6.9 mph 99% 0 in 75 W/m2
08:00 39.7 °F 39.6 °F 30 in NNW 5.4 mph 6.9 mph 99% 0 in 87 W/m2
08:05 40.1 °F 39.7 °F 30 in NNW 3.8 mph 7.6 mph 99% 0 in 100 W/m2
08:10 40.5 °F 40.3 °F 30 in NW 5.4 mph 7.6 mph 99% 0.01 in 110 W/m2
08:15 40.5 °F 40.3 °F 30 in NW 3.8 mph 7.6 mph 99% 0.01 in 119 W/m2
08:20 41 °F 40.6 °F 30 in NW 3.8 mph 7.6 mph 99% 0.01 in 130 W/m2
08:26 41.4 °F 41.2 °F 30 in NW 3.8 mph 7.6 mph 99% 0.01 in 141 W/m2
08:31 41.7 °F 41.5 °F 30 in NW 3.8 mph 7.6 mph 99% 0.01 in 150 W/m2
08:36 42.1 °F 41.7 °F 30 in NNW 4.5 mph 7.6 mph 99% 0.01 in 160 W/m2
08:41 42.4 °F 42.3 °F 30 in NW 5.4 mph 7.6 mph 99% 0.01 in 175 W/m2
08:46 43 °F 42.4 °F 30 in NNW 5.4 mph 7.6 mph 98% 0.01 in 198 W/m2
08:51 43.5 °F 43 °F 30 in NNW 3.8 mph 9.2 mph 98% 0.01 in 232 W/m2
08:56 44.6 °F 43.9 °F 30 in NNW 5.4 mph 9.2 mph 97% 0.01 in 260 W/m2
09:01 45.3 °F 44.1 °F 30 in NNW 5.4 mph 8.3 mph 95% 0.01 in 204 W/m2
09:06 45.3 °F 43.2 °F 30 in NNW 4.5 mph 8.3 mph 92% 0.01 in 153 W/m2
09:11 45 °F 42.3 °F 30 in NNW 6.9 mph 9.2 mph 90% 0 in 160 W/m2
09:16 45 °F 41.5 °F 30 in NNW 7.6 mph 11.4 mph 88% 0 in 182 W/m2
09:21 45.3 °F 41.7 °F 30 in NNW 3.8 mph 11.4 mph 87% 0 in 197 W/m2
09:26 46.2 °F 42.3 °F 30 in NNW 6 mph 9.2 mph 86% 0 in 160 W/m2
09:31 46.6 °F 42.3 °F 30 in NNW 6 mph 9.2 mph 85% 0 in 182 W/m2
09:36 47.1 °F 42.8 °F 30 in North 5.4 mph 9.2 mph 85% 0 in 155 W/m2
09:41 47.3 °F 42.4 °F 30 in NNW 5.4 mph 8.3 mph 83% 0 in 143 W/m2
09:46 46.9 °F 41.7 °F 30 in NNW 3.1 mph 9.2 mph 82% 0 in 130 W/m2
09:51 46.9 °F 42.1 °F 30 in NNW 6 mph 9.2 mph 83% 0 in 123 W/m2
09:56 46.6 °F 41.7 °F 30 in North 3.8 mph 9.8 mph 83% 0 in 122 W/m2
10:01 46.8 °F 42.3 °F 30 in NNW 3.8 mph 9.8 mph 84% 0 in 118 W/m2
10:06 47.1 °F 42.4 °F 30 in NNW 6 mph 8.3 mph 84% 0 in 130 W/m2
10:11 47.5 °F 42.6 °F 30 in North 4.5 mph 9.2 mph 83% 0 in 130 W/m2
10:16 47.8 °F 43 °F 30 in NNW 3.8 mph 9.2 mph 83% 0 in 119 W/m2
10:21 48 °F 42.4 °F 30 in NNW 6 mph 8.3 mph 81% 0 in 113 W/m2
10:26 48.4 °F 42.8 °F 30 in North 3.8 mph 8.3 mph 81% 0 in 100 W/m2
10:31 48.9 °F 43 °F 30 in North 3.8 mph 8.3 mph 80% 0 in 93 W/m2
10:38 50.4 °F 43.9 °F 30 in NNW 2.2 mph 8.3 mph 78% 0 in 62 W/m2
10:43 51.4 °F 44.8 °F 30 in NNW 6.9 mph 8.3 mph 78% 0 in 55 W/m2
10:48 51.6 °F 44.1 °F 30 in NW 5.4 mph 8.3 mph 75% 0 in 54 W/m2
10:53 51.8 °F 43.9 °F 30 in NNW 3.8 mph 8.3 mph 74% 0 in 53 W/m2
10:58 51.8 °F 43.9 °F 30 in NNW 4.5 mph 8.3 mph 74% 0 in 52 W/m2
11:03 52.2 °F 44.1 °F 30 in NNW 4.5 mph 8.3 mph 74% 0 in 52 W/m2
11:08 52.5 °F 44.1 °F 30 in NNW 4.5 mph 6.9 mph 73% 0 in 52 W/m2
11:13 52.9 °F 44.1 °F 30 in NNW 4.5 mph 7.6 mph 72% 0 in 52 W/m2
11:18 53.1 °F 44.2 °F 30 in NNW 4.5 mph 7.6 mph 72% 0 in 51 W/m2
11:23 53.6 °F 44.4 °F 30 in NNW 3.8 mph 6 mph 71% 0 in 51 W/m2
11:28 54.3 °F 44.8 °F 30 in North 3.1 mph 6 mph 70% 0 in 50 W/m2
11:33 54.9 °F 45 °F 30 in North 3.8 mph 6 mph 69% 0 in 49 W/m2
11:38 55 °F 45.1 °F 30 in NNW 6 mph 7.6 mph 69% 0 in 49 W/m2
11:43 55.2 °F 45 °F 30 in NNW 3.1 mph 7.6 mph 68% 0 in 49 W/m2
11:48 56.3 °F 45.9 °F 30 in NNW 2.2 mph 7.6 mph 68% 0 in 58 W/m2
11:53 56.3 °F 45.1 °F 30 in NNW 4.5 mph 7.6 mph 66% 0 in 51 W/m2
11:58 56.1 °F 45.3 °F 30 in NNW 3.8 mph 7.6 mph 67% 0 in 57 W/m2
12:03 56.8 °F 45.7 °F 30 in North 3.8 mph 6.9 mph 66% 0 in 56 W/m2
12:08 57.6 °F 45.5 °F 30 in North 4.5 mph 6.9 mph 64% 0 in 54 W/m2
12:13 57.9 °F 46.2 °F 30 in NNW 4.5 mph 6.9 mph 65% 0 in 59 W/m2
12:18 57.9 °F 45.9 °F 30 in NW 1.6 mph 6.9 mph 64% 0 in 65 W/m2
12:23 59.4 °F 46.8 °F 30 in NNW 2.2 mph 6.9 mph 63% 0 in 57 W/m2
12:28 60.1 °F 46.2 °F 30 in North 3.8 mph 5.4 mph 60% 0 in 59 W/m2
12:33 60.1 °F 45.7 °F 30 in NNW 3.8 mph 6 mph 59% 0 in 57 W/m2
12:38 59.9 °F 45.7 °F 30 in NNW 2.2 mph 6 mph 59% 0 in 55 W/m2
12:43 60.8 °F 45.9 °F 30 in NNW 1.6 mph 6 mph 58% 0 in 55 W/m2
12:48 61.3 °F 46 °F 30 in NW 1.6 mph 4.5 mph 57% 0 in 55 W/m2
12:53 61.7 °F 45.9 °F 30 in NW 3.1 mph 4.5 mph 56% 0 in 55 W/m2
12:58 61.9 °F 46 °F 30 in NNW 3.1 mph 5.4 mph 56% 0 in 55 W/m2
13:03 61.9 °F 45.7 °F 30 in NNE 2.2 mph 5.4 mph 55% 0 in 55 W/m2
13:08 62.8 °F 45.3 °F 30 in NNE 2.2 mph 5.4 mph 53% 0 in 56 W/m2
13:13 62.2 °F 45.9 °F 30 in NNE 2.2 mph 6.9 mph 55% 0 in 57 W/m2
13:18 62.8 °F 46.4 °F 30 in NNW 4.5 mph 6.9 mph 55% 0 in 58 W/m2
13:23 62.4 °F 46 °F 30 in NW 2.2 mph 6 mph 55% 0 in 60 W/m2
13:28 63 °F 46 °F 30 in NW 1.6 mph 6 mph 54% 0 in 68 W/m2
13:33 63.9 °F 46.4 °F 30 in West 0.7 mph 4.5 mph 53% 0 in 76 W/m2
13:38 65.8 °F 47.7 °F 30 in WNW 2.2 mph 4.5 mph 52% 0 in 124 W/m2
13:43 66.4 °F 47.7 °F 30 in North 2.2 mph 4.5 mph 51% 0 in 97 W/m2
13:48 67.3 °F 48 °F 30 in North 1.6 mph 4.5 mph 50% 0 in 81 W/m2
13:53 67.1 °F 46.2 °F 30 in SSW 2.2 mph 4.5 mph 47% 0 in 82 W/m2
13:58 65.3 °F 45.1 °F 30 in SSW 3.8 mph 6 mph 48% 0 in 94 W/m2
14:03 64 °F 45.7 °F 30 in SW 2.2 mph 6.9 mph 51% 0 in 112 W/m2
14:08 63.9 °F 45.3 °F 30 in SW 3.1 mph 6.9 mph 51% 0 in 260 W/m2
14:13 63.9 °F 45.3 °F 30 in SW 3.8 mph 6 mph 51% 0 in 317 W/m2
14:18 63.7 °F 45.1 °F 30 in SW 2.2 mph 6 mph 51% 0 in 307 W/m2
14:23 64 °F 45.7 °F 30 in SW 2.2 mph 6 mph 51% 0 in 220 W/m2
14:28 63.3 °F 45 °F 30 in SW 2.2 mph 6.9 mph 51% 0 in 242 W/m2
14:33 62.4 °F 45.1 °F 30 in SSW 3.8 mph 6.9 mph 53% 0 in 95 W/m2
14:38 60.8 °F 44.1 °F 30 in SSW 3.1 mph 5.4 mph 54% 0 in 136 W/m2
14:43 61 °F 44.8 °F 30 in SW 2.2 mph 5.4 mph 55% 0 in 106 W/m2
14:48 60.1 °F 44.2 °F 30 in SW 3.1 mph 5.4 mph 56% 0 in 72 W/m2
14:53 59 °F 44.2 °F 30 in SSW 1.6 mph 5.4 mph 58% 0 in 73 W/m2
14:58 58.5 °F 45.5 °F 30 in SW 2.2 mph 4.5 mph 62% 0 in 82 W/m2
15:03 58.5 °F 45.5 °F 30 in SSW 2.2 mph 3.8 mph 62% 0 in 178 W/m2
15:08 59.9 °F 46 °F 30 in SSW 0.7 mph 3.8 mph 60% 0 in 185 W/m2
15:13 61.5 °F 45.7 °F 30 in SSW 2.2 mph 4.5 mph 56% 0 in 198 W/m2
15:18 62.6 °F 46.2 °F 30 in SW 3.8 mph 4.5 mph 55% 0 in 168 W/m2
15:23 62.4 °F 45.7 °F 30 in SW 2.2 mph 4.5 mph 54% 0 in 185 W/m2
15:28 62.4 °F 45.1 °F 30 in SW 3.8 mph 6 mph 53% 0 in 177 W/m2
15:33 61.5 °F 44.8 °F 30 in SW 3.1 mph 6.9 mph 54% 0 in 180 W/m2
15:38 61.5 °F 44.8 °F 30 in SSW 3.1 mph 6.9 mph 54% 0 in 170 W/m2
15:43 61.7 °F 45 °F 30 in SSW 3.1 mph 6.9 mph 54% 0 in 143 W/m2
15:48 61.9 °F 45.7 °F 30 in SW 2.2 mph 6.9 mph 55% 0 in 124 W/m2
15:53 61.7 °F 45.9 °F 30 in SW 3.1 mph 5.4 mph 56% 0 in 63 W/m2
15:58 59.7 °F 45 °F 30 in SW 2.2 mph 4.5 mph 58% 0 in 94 W/m2
16:03 59.7 °F 46.2 °F 30 in SW 1.6 mph 4.5 mph 61% 0 in 86 W/m2
16:08 60.8 °F 46.4 °F 30 in WSW 3.1 mph 5.4 mph 59% 0 in 69 W/m2
16:13 60.1 °F 46.2 °F 30 in SW 2.2 mph 5.4 mph 60% 0 in 56 W/m2
16:18 59.7 °F 46.2 °F 30 in SW 3.1 mph 5.4 mph 61% 0 in 42 W/m2
16:23 59.5 °F 46.9 °F 30 in SW 1.6 mph 3.8 mph 63% 0 in 32 W/m2
16:28 59.2 °F 46.6 °F 30 in SW 2.2 mph 3.8 mph 63% 0 in 26 W/m2
16:33 58.3 °F 46.2 °F 30 in SW 0.7 mph 3.1 mph 64% 0 in 15 W/m2
16:38 57.2 °F 45.7 °F 30 in SW 1.6 mph 3.1 mph 65% 0 in 13 W/m2
16:43 56.8 °F 46 °F 30 in SW 1.6 mph 3.1 mph 67% 0 in 8 W/m2
16:48 55.6 °F 45.1 °F 30 in WSW 0.7 mph 3.1 mph 68% 0 in 5 W/m2
16:53 54.5 °F 45.3 °F 30 in Calm   3.1 mph 71% 0 in 3 W/m2
16:58 53.8 °F 44.6 °F 30 in Calm   1.6 mph 71% 0 in 1 W/m2
17:03 53.1 °F 44.6 °F 30 in Calm   0.7 mph 73% 0 in 0 W/m2
17:08 52.2 °F 43.9 °F 30 in West 0.7 mph 1.6 mph 73% 0 in 0 W/m2
17:13 51.6 °F 44.1 °F 30 in Calm   1.6 mph 75% 0 in 0 W/m2
17:18 51.3 °F 44.1 °F 30 in Calm   1.6 mph 76% 0 in 0 W/m2
17:23 50.9 °F 44.1 °F 30 in Calm   1.6 mph 77% 0 in 0 W/m2
17:28 50.5 °F 44.6 °F 30 in North 1.6 mph 2.2 mph 80% 0 in 0 W/m2
17:33 50.2 °F 45.1 °F 30 in North 1.6 mph 3.1 mph 83% 0 in 0 W/m2
17:38 50 °F 45.3 °F 30 in North 1.6 mph 3.1 mph 84% 0 in 0 W/m2
17:48 49.6 °F 45.7 °F 30 in NNW 1.6 mph 3.1 mph 86% 0 in 0 W/m2
17:53 49.1 °F 45.1 °F 30 in NW 0.7 mph 3.1 mph 86% 0 in 0 W/m2
17:58 48.9 °F 45 °F 30 in NNW 0.7 mph 2.2 mph 86% 0 in 0 W/m2
18:03 48.9 °F 45.1 °F 30 in North 0.7 mph 2.2 mph 87% 0 in 0 W/m2
18:08 48.7 °F 45 °F 30 in North 0.7 mph 2.2 mph 87% 0 in 0 W/m2
18:25 48.6 °F 45.1 °F 30 in North 2.2 mph 3.1 mph 88% 0 in 0 W/m2
18:30 48.7 °F 45.7 °F 30 in North 1.6 mph 3.1 mph 89% 0 in 0 W/m2
18:35 48.7 °F 45.7 °F 30 in North 1.6 mph 3.1 mph 89% 0 in 0 W/m2
18:40 48.6 °F 45.5 °F 30 in North 0.7 mph 3.1 mph 89% 0 in 0 W/m2
18:45 48.4 °F 45.7 °F 30 in North 3.1 mph 3.8 mph 90% 0 in 0 W/m2
18:50 48.2 °F 45.3 °F 30 in North 0.7 mph 3.8 mph 90% 0 in 0 W/m2
18:55 48 °F 45.5 °F 30 in Calm   3.8 mph 91% 0 in 0 W/m2
19:00 48 °F 45.5 °F 30 in North 0.7 mph 3.1 mph 91% 0 in 0 W/m2
19:05 48.6 °F 46 °F 30 in NW 1.6 mph 3.8 mph 91% 0 in 0 W/m2
19:10 48.9 °F 46.4 °F 30 in West 3.1 mph 6.9 mph 91% 0 in 0 W/m2
19:15 50 °F 47.1 °F 30 in WSW 3.1 mph 6.9 mph 90% 0 in 0 W/m2
19:20 51.4 °F 47.7 °F 30 in WSW 3.1 mph 7.6 mph 87% 0 in 0 W/m2
19:25 52.3 °F 47.3 °F 30 in WSW 3.8 mph 7.6 mph 83% 0 in 0 W/m2
19:30 52.9 °F 46.9 °F 30 in West 3.8 mph 8.3 mph 80% 0 in 0 W/m2
19:35 53.1 °F 46.4 °F 30 in West 4.5 mph 8.3 mph 78% 0 in 0 W/m2
19:40 53.1 °F 46 °F 30 in West 4.5 mph 6.9 mph 77% 0 in 0 W/m2
19:45 53.1 °F 45.3 °F 30 in WSW 4.5 mph 10.7 mph 75% 0 in 0 W/m2
19:50 53.1 °F 45.3 °F 30 in WSW 4.5 mph 10.7 mph 75% 0 in 0 W/m2
19:55 53.2 °F 45.1 °F 30 in WSW 4.5 mph 9.2 mph 74% 0 in 0 W/m2
20:00 53.4 °F 45 °F 30 in West 6.9 mph 12.1 mph 73% 0 in 0 W/m2
20:06 53.6 °F 44.4 °F 30 in WSW 4.5 mph 12.1 mph 71% 0 in 0 W/m2
20:11 53.4 °F 44.6 °F 30 in WSW 3.8 mph 12.1 mph 72% 0 in 0 W/m2
20:16 53.6 °F 44.1 °F 30 in West 6.9 mph 16.8 mph 70% 0 in 0 W/m2
20:21 54 °F 44.1 °F 30 in WSW 9.8 mph 20.6 mph 69% 0 in 0 W/m2
20:26 54 °F 44.1 °F 30 in WSW 8.3 mph 20.6 mph 69% 0 in 0 W/m2
20:31 53.8 °F 44.2 °F 30 in WSW 6 mph 14.5 mph 70% 0 in 0 W/m2
20:36 53.6 °F 43.7 °F 30.1 in WSW 12.1 mph 15.9 mph 69% 0 in 0 W/m2
20:41 53.6 °F 44.1 °F 30.1 in WSW 11.4 mph 16.8 mph 70% 0 in 0 W/m2
20:46 53.6 °F 43.7 °F 30.1 in WSW 9.2 mph 18.3 mph 69% 0 in 0 W/m2
20:51 53.4 °F 44.2 °F 30.1 in SW 6.9 mph 19 mph 71% 0 in 0 W/m2
20:56 53.2 °F 44.1 °F 30.1 in WSW 6.9 mph 19 mph 71% 0 in 0 W/m2
21:01 53.1 °F 43.9 °F 30.1 in SW 8.3 mph 18.3 mph 71% 0 in 0 W/m2
21:06 52.9 °F 43.7 °F 30.1 in SW 8.3 mph 19.7 mph 71% 0 in 0 W/m2
21:11 52.7 °F 43.9 °F 30.1 in SW 6.9 mph 19.7 mph 72% 0 in 0 W/m2
21:16 52.7 °F 43.5 °F 30.1 in WSW 6.9 mph 15.9 mph 71% 0 in 0 W/m2
21:26 52.3 °F 43.5 °F 30.1 in WSW 4.5 mph 14.5 mph 72% 0 in 0 W/m2
21:31 52.3 °F 43.5 °F 30.1 in WSW 6.9 mph 14.5 mph 72% 0 in 0 W/m2
21:36 52.5 °F 43.9 °F 30.1 in WSW 12.1 mph 13.6 mph 72% 0 in 0 W/m2
21:41 52.5 °F 43.9 °F 30.1 in WSW 7.6 mph 13.6 mph 72% 0 in 0 W/m2
21:46 52.3 °F 43.5 °F 30.1 in WSW 6.9 mph 13.6 mph 72% 0 in 0 W/m2
21:51 52.5 °F 43 °F 30.1 in WSW 7.6 mph 16.8 mph 70% 0 in 0 W/m2
21:56 52.5 °F 43 °F 30.1 in WSW 3.8 mph 16.8 mph 70% 0 in 0 W/m2
22:01 52.3 °F 43 °F 30.1 in West 9.2 mph 13 mph 70% 0 in 0 W/m2
22:06 52.3 °F 43.2 °F 30.1 in West 8.3 mph 13 mph 71% 0 in 0 W/m2
22:11 52.3 °F 43.5 °F 30.1 in West 7.6 mph 17.4 mph 72% 0 in 0 W/m2
22:16 52.5 °F 43.9 °F 30.1 in West 6.9 mph 17.4 mph 72% 0 in 0 W/m2
22:21 52.7 °F 43.9 °F 30.1 in WSW 6.9 mph 19.7 mph 72% 0 in 0 W/m2
22:26 52.7 °F 43.9 °F 30.1 in WSW 11.4 mph 19.7 mph 72% 0 in 0 W/m2
22:31 52.7 °F 43.5 °F 30.1 in WSW 10.7 mph 21.3 mph 71% 0 in 0 W/m2
22:36 52.7 °F 43.5 °F 30.1 in WSW 3.8 mph 21.3 mph 71% 0 in 0 W/m2
22:41 52.7 °F 43.2 °F 30.1 in West 6.9 mph 15.2 mph 70% 0 in 0 W/m2
22:46 52.7 °F 42.8 °F 30.1 in West 4.5 mph 13.6 mph 69% 0 in 0 W/m2
22:51 52.5 °F 42.3 °F 30.1 in West 8.3 mph 13 mph 68% 0 in 0 W/m2
22:56 52.5 °F 41.5 °F 30.1 in West 7.6 mph 15.9 mph 66% 0 in 0 W/m2
23:01 52.5 °F 41.2 °F 30.1 in WSW 6 mph 15.9 mph 65% 0 in 0 W/m2
23:06 52.3 °F 40.8 °F 30.1 in WSW 9.8 mph 15.2 mph 65% 0 in 0 W/m2
23:11 52.5 °F 40.6 °F 30.1 in WSW 11.4 mph 16.8 mph 64% 0 in 0 W/m2
23:16 52.5 °F 40.6 °F 30.1 in WSW 3.8 mph 16.8 mph 64% 0 in 0 W/m2
23:21 52.5 °F 40.6 °F 30.1 in WSW 8.3 mph 16.8 mph 64% 0 in 0 W/m2
23:26 52.3 °F 40.1 °F 30.1 in West 6.9 mph 13 mph 63% 0 in 0 W/m2
23:31 52.3 °F 40.1 °F 30.1 in West 6.9 mph 13.6 mph 63% 0 in 0 W/m2
23:36 52.3 °F 40.1 °F 30.1 in West 10.7 mph 15.2 mph 63% 0 in 0 W/m2
23:42 52.3 °F 41.4 °F 30.1 in West 13 mph 19 mph 66% 0 in 0 W/m2
23:47 52.7 °F 42.1 °F 30.1 in West 13 mph 19 mph 67% 0 in 0 W/m2
23:52 52.9 °F 42.3 °F 30.1 in WSW 16.8 mph 22.1 mph 67% 0 in 0 W/m2
23:57 52.9 °F 43 °F 30.1 in WSW 12.1 mph 22.1 mph 69% 0 in 0 W/m2
Northern Hawkes Bay. New Zealand Historic Data
Compliments of Weather Underground - 2.25 mb